Time;durP1;ratioP1;P1;durP2;ratioP2;P2;SDS_P1;SDS_P2;PMS_P1;PMS_P2;Temp;Humidity;BMP_temperature;BMP_pressure;BME280_temperature;BME280_humidity;BME280_pressure;Samples;Min_cycle;Max_cycle;Signal;HPM_P1;HPM_P2
2023/03/04 00:01:17;;;;;;;37.60;30.38;;;;;;;;;;5037285;28;20049;-76
2023/03/04 00:03:42;;;;;;;40.15;31.35;;;;;;;;;;5038274;28;20047;-75
2023/03/04 00:06:07;;;;;;;36.58;27.63;;;;;;;;;;5028964;28;20379;-74
2023/03/04 00:08:33;;;;;;;39.95;32.30;;;;;;;;;;5038655;28;20108;-74
2023/03/04 00:10:58;;;;;;;57.50;39.53;;;;;;;;;;5038389;28;20456;-75
2023/03/04 00:13:24;;;;;;;54.58;38.80;;;;;;;;;;5024883;28;20033;-75
2023/03/04 00:15:49;;;;;;;66.63;45.35;;;;;;;;;;5041408;28;20359;-75
2023/03/04 00:18:15;;;;;;;89.20;56.85;;;;;;;;;;5038524;28;20064;-75
2023/03/04 00:20:40;;;;;;;76.15;49.40;;;;;;;;;;5037288;28;20041;-74
2023/03/04 00:23:06;;;;;;;91.35;63.60;;;;;;;;;;5025957;28;20044;-76
2023/03/04 00:25:32;;;;;;;78.07;57.20;;;;;;;;;;5025664;28;20025;-74
2023/03/04 00:27:57;;;;;;;105.72;81.47;;;;;;;;;;5026898;28;20735;-74
2023/03/04 00:30:23;;;;;;;111.72;86.00;;;;;;;;;;5025317;28;20500;-74
2023/03/04 00:32:49;;;;;;;163.02;117.68;;;;;;;;;;5064119;28;20064;-74
2023/03/04 00:35:14;;;;;;;142.57;105.30;;;;;;;;;;5040255;28;20368;-74
2023/03/04 00:37:40;;;;;;;131.18;100.68;;;;;;;;;;5038801;28;20028;-76
2023/03/04 00:40:05;;;;;;;163.88;119.13;;;;;;;;;;5037404;28;20026;-76
2023/03/04 00:42:30;;;;;;;154.27;114.55;;;;;;;;;;5036744;28;20029;-75
2023/03/04 00:44:56;;;;;;;198.73;147.45;;;;;;;;;;5030748;28;20036;-74
2023/03/04 00:47:21;;;;;;;216.45;153.40;;;;;;;;;;5034218;28;20039;-76
2023/03/04 00:49:46;;;;;;;188.68;137.70;;;;;;;;;;5028709;28;20033;-76
2023/03/04 00:52:12;;;;;;;201.50;140.40;;;;;;;;;;5037713;28;20424;-74
2023/03/04 00:54:37;;;;;;;208.90;152.45;;;;;;;;;;5040140;28;20116;-73
2023/03/04 00:57:02;;;;;;;140.95;104.85;;;;;;;;;;5040173;28;20029;-73
2023/03/04 00:59:27;;;;;;;100.70;75.72;;;;;;;;;;5039708;28;20048;-73
2023/03/04 01:01:53;;;;;;;103.63;78.20;;;;;;;;;;5038375;28;20033;-75
2023/03/04 01:04:18;;;;;;;94.32;73.72;;;;;;;;;;5039172;28;20360;-74
2023/03/04 01:06:43;;;;;;;83.63;65.82;;;;;;;;;;5035143;28;20029;-76
2023/03/04 01:09:09;;;;;;;78.40;59.35;;;;;;;;;;5037670;28;20030;-75
2023/03/04 01:11:34;;;;;;;65.65;50.60;;;;;;;;;;5024811;28;20348;-74
2023/03/04 01:13:59;;;;;;;56.97;46.15;;;;;;;;;;5025331;28;20950;-76
2023/03/04 01:16:25;;;;;;;58.05;43.50;;;;;;;;;;5027260;28;20040;-74
2023/03/04 01:18:50;;;;;;;62.72;45.30;;;;;;;;;;5038726;28;20437;-74
2023/03/04 01:21:15;;;;;;;93.70;73.28;;;;;;;;;;5037319;28;20040;-74
2023/03/04 01:23:41;;;;;;;88.57;68.78;;;;;;;;;;5036372;28;20159;-74
2023/03/04 01:26:06;;;;;;;92.35;70.68;;;;;;;;;;5026644;28;20036;-74
2023/03/04 01:28:34;;;;;;;90.07;73.45;;;;;;;;;;5027334;28;20039;-74
2023/03/04 01:31:00;;;;;;;84.75;67.10;;;;;;;;;;5035935;28;20115;-77
2023/03/04 01:33:25;;;;;;;56.88;48.55;;;;;;;;;;5028985;28;20115;-74
2023/03/04 01:35:50;;;;;;;92.38;75.32;;;;;;;;;;5039002;28;20033;-74
2023/03/04 01:38:16;;;;;;;168.55;150.55;;;;;;;;;;5038215;28;20021;-74
2023/03/04 01:40:41;;;;;;;124.13;99.25;;;;;;;;;;5035908;28;20362;-76
2023/03/04 01:43:08;;;;;;;118.65;97.68;;;;;;;;;;5036619;28;20053;-74
2023/03/04 01:45:34;;;;;;;127.10;101.85;;;;;;;;;;5027811;28;20180;-77
2023/03/04 01:47:59;;;;;;;120.50;93.95;;;;;;;;;;5039095;28;20108;-74
2023/03/04 01:50:30;;;;;;;91.85;66.90;;;;;;;;;;5036512;28;20404;-75
2023/03/04 01:52:56;;;;;;;84.93;62.00;;;;;;;;;;5034628;28;20017;-75
2023/03/04 01:55:21;;;;;;;69.70;49.08;;;;;;;;;;5029665;28;20045;-75
2023/03/04 01:57:47;;;;;;;86.55;61.25;;;;;;;;;;5036795;28;20052;-75
2023/03/04 02:00:30;;;;;;;113.03;89.20;;;;;;;;;;5031654;28;20444;-75
2023/03/04 02:03:06;;;;;;;103.60;83.07;;;;;;;;;;5035075;28;20033;-74
2023/03/04 02:05:33;;;;;;;87.18;70.95;;;;;;;;;;5035749;28;20029;-74
2023/03/04 02:08:00;;;;;;;90.43;69.72;;;;;;;;;;5029553;28;20079;-75
2023/03/04 02:10:25;;;;;;;92.32;73.25;;;;;;;;;;5034903;28;20166;-75
2023/03/04 02:12:51;;;;;;;85.20;68.63;;;;;;;;;;5035295;28;20179;-74
2023/03/04 02:15:16;;;;;;;87.63;70.13;;;;;;;;;;5027331;28;20414;-74
2023/03/04 02:17:42;;;;;;;89.40;70.13;;;;;;;;;;5033891;28;20041;-75
2023/03/04 02:20:27;;;;;;;89.38;68.72;;;;;;;;;;5027991;28;20033;-75
2023/03/04 02:22:58;;;;;;;94.55;72.40;;;;;;;;;;5038349;28;20037;-75
2023/03/04 02:25:27;;;;;;;77.72;60.42;;;;;;;;;;5036354;28;20033;-74
2023/03/04 02:27:53;;;;;;;76.00;57.65;;;;;;;;;;5029469;28;20098;-74
2023/03/04 02:30:19;;;;;;;77.10;60.30;;;;;;;;;;5029815;28;20431;-74
2023/03/04 02:32:44;;;;;;;62.47;49.55;;;;;;;;;;5035837;28;20544;-74
2023/03/04 02:35:14;;;;;;;69.95;56.75;;;;;;;;;;5037590;28;20064;-74
2023/03/04 02:37:40;;;;;;;64.10;51.55;;;;;;;;;;5036740;28;20105;-75
2023/03/04 02:40:07;;;;;;;49.38;41.22;;;;;;;;;;5037430;28;20108;-75
2023/03/04 02:42:32;;;;;;;101.90;77.22;;;;;;;;;;5031346;28;20014;-74
2023/03/04 02:44:58;;;;;;;72.43;57.63;;;;;;;;;;5024385;28;20021;-76
2023/03/04 02:47:23;;;;;;;51.13;40.83;;;;;;;;;;5036167;28;20342;-76
2023/03/04 02:49:49;;;;;;;50.13;40.75;;;;;;;;;;5036769;28;20124;-76
2023/03/04 02:52:14;;;;;;;61.47;48.92;;;;;;;;;;5037775;28;20043;-75
2023/03/04 02:54:40;;;;;;;73.18;58.33;;;;;;;;;;5032213;28;20425;-74
2023/03/04 02:57:06;;;;;;;81.13;65.72;;;;;;;;;;5036695;28;20045;-75
2023/03/04 02:59:31;;;;;;;89.10;69.72;;;;;;;;;;5037747;28;20421;-75
2023/03/04 03:01:57;;;;;;;60.40;47.30;;;;;;;;;;5035438;28;20108;-75
2023/03/04 03:04:22;;;;;;;67.60;54.42;;;;;;;;;;5038326;28;20021;-75
2023/03/04 03:06:48;;;;;;;64.53;49.80;;;;;;;;;;5036173;28;20041;-76
2023/03/04 03:09:13;;;;;;;65.50;51.92;;;;;;;;;;5036654;28;20029;-75
2023/03/04 03:11:39;;;;;;;65.72;50.05;;;;;;;;;;5034807;28;20052;-75
2023/03/04 03:14:04;;;;;;;59.63;43.38;;;;;;;;;;5035530;28;20086;-75
2023/03/04 03:16:29;;;;;;;55.33;42.05;;;;;;;;;;5036976;28;20021;-74
2023/03/04 03:18:55;;;;;;;71.15;54.03;;;;;;;;;;5036245;28;20031;-76
2023/03/04 03:21:20;;;;;;;70.18;56.13;;;;;;;;;;5038826;28;20021;-75
2023/03/04 03:23:45;;;;;;;90.35;72.10;;;;;;;;;;5034444;28;20033;-76
2023/03/04 03:26:11;;;;;;;59.92;47.10;;;;;;;;;;5023463;28;20120;-74
2023/03/04 03:28:36;;;;;;;56.13;41.55;;;;;;;;;;5036929;28;20033;-75
2023/03/04 03:31:01;;;;;;;58.40;45.63;;;;;;;;;;5036220;28;20217;-75
2023/03/04 03:33:27;;;;;;;78.13;55.25;;;;;;;;;;5028221;28;20406;-75
2023/03/04 03:35:52;;;;;;;72.80;54.05;;;;;;;;;;5031540;28;20033;-75
2023/03/04 03:38:18;;;;;;;67.07;49.40;;;;;;;;;;5038246;28;20398;-75
2023/03/04 03:40:43;;;;;;;69.72;54.28;;;;;;;;;;5038791;28;20403;-76
2023/03/04 03:43:08;;;;;;;66.60;51.75;;;;;;;;;;5039782;28;20440;-75
2023/03/04 03:45:34;;;;;;;67.55;50.03;;;;;;;;;;5041520;28;20135;-75
2023/03/04 03:47:59;;;;;;;56.88;42.70;;;;;;;;;;5041716;28;20107;-74
2023/03/04 03:50:24;;;;;;;48.85;37.30;;;;;;;;;;5038226;28;20778;-75
2023/03/04 03:52:49;;;;;;;54.83;38.88;;;;;;;;;;5041523;28;20021;-75
2023/03/04 03:55:15;;;;;;;45.30;36.65;;;;;;;;;;5040543;28;20114;-75
2023/03/04 03:57:40;;;;;;;44.22;35.60;;;;;;;;;;5038566;28;20104;-76
2023/03/04 04:00:06;;;;;;;50.03;38.88;;;;;;;;;;5038687;28;20470;-76
2023/03/04 04:02:31;;;;;;;46.78;37.15;;;;;;;;;;5038684;28;20033;-75
2023/03/04 04:04:56;;;;;;;55.58;39.53;;;;;;;;;;5039477;28;20524;-75
2023/03/04 04:07:22;;;;;;;52.25;39.20;;;;;;;;;;5040199;28;20090;-76
2023/03/04 04:09:47;;;;;;;61.70;42.45;;;;;;;;;;5039874;28;20349;-73
2023/03/04 04:12:13;;;;;;;68.78;51.00;;;;;;;;;;5037761;28;20399;-75
2023/03/04 04:14:39;;;;;;;75.35;55.45;;;;;;;;;;5038752;28;20392;-74
2023/03/04 04:17:04;;;;;;;71.82;53.13;;;;;;;;;;5041385;28;20037;-77
2023/03/04 04:19:29;;;;;;;73.43;54.90;;;;;;;;;;5038509;28;20037;-75
2023/03/04 04:21:55;;;;;;;67.72;49.95;;;;;;;;;;5037614;28;20801;-74
2023/03/04 04:24:20;;;;;;;59.75;44.47;;;;;;;;;;5039606;28;20090;-73
2023/03/04 04:26:45;;;;;;;60.38;44.85;;;;;;;;;;5038948;28;20067;-75
2023/03/04 04:29:12;;;;;;;53.88;45.05;;;;;;;;;;5040219;28;20082;-75
2023/03/04 04:31:38;;;;;;;54.10;42.22;;;;;;;;;;5037459;28;20344;-74
2023/03/04 04:34:03;;;;;;;65.38;51.42;;;;;;;;;;5035636;28;20020;-75
2023/03/04 04:36:28;;;;;;;89.72;61.45;;;;;;;;;;5035208;28;20029;-76
2023/03/04 04:38:54;;;;;;;72.40;50.25;;;;;;;;;;5039675;28;20444;-75
2023/03/04 04:41:24;;;;;;;150.95;92.78;;;;;;;;;;5038511;28;20032;-76
2023/03/04 04:43:49;;;;;;;132.93;85.72;;;;;;;;;;5032933;28;20132;-79
2023/03/04 04:46:15;;;;;;;86.90;58.58;;;;;;;;;;5033581;28;20516;-76
2023/03/04 04:48:41;;;;;;;67.82;49.20;;;;;;;;;;5035747;28;20496;-75
2023/03/04 04:51:06;;;;;;;67.85;49.33;;;;;;;;;;5026714;28;20410;-75
2023/03/04 04:53:32;;;;;;;61.50;43.92;;;;;;;;;;5038830;28;20021;-74
2023/03/04 04:55:57;;;;;;;57.38;44.10;;;;;;;;;;5033781;28;20056;-74
2023/03/04 04:58:22;;;;;;;70.22;51.00;;;;;;;;;;5038733;28;20043;-74
2023/03/04 05:00:48;;;;;;;68.95;50.15;;;;;;;;;;5038014;28;20025;-74
2023/03/04 05:03:13;;;;;;;63.70;47.13;;;;;;;;;;5038770;28;20029;-74
2023/03/04 05:05:38;;;;;;;72.65;53.67;;;;;;;;;;5039435;28;20094;-74
2023/03/04 05:08:04;;;;;;;73.53;53.75;;;;;;;;;;5037919;28;20094;-74
2023/03/04 05:10:29;;;;;;;65.10;47.53;;;;;;;;;;5037375;28;20034;-77
2023/03/04 05:12:54;;;;;;;78.63;57.10;;;;;;;;;;5036289;28;20025;-74
2023/03/04 05:15:20;;;;;;;85.60;59.38;;;;;;;;;;5035671;28;20477;-74
2023/03/04 05:17:45;;;;;;;94.82;65.30;;;;;;;;;;5038207;28;20356;-75
2023/03/04 05:20:11;;;;;;;102.35;70.78;;;;;;;;;;5040295;28;20504;-75
2023/03/04 05:22:36;;;;;;;78.68;56.58;;;;;;;;;;5036795;28;20049;-74
2023/03/04 05:25:02;;;;;;;76.03;54.45;;;;;;;;;;5038034;28;20478;-73
2023/03/04 05:27:27;;;;;;;74.72;56.28;;;;;;;;;;5028256;28;20024;-75
2023/03/04 05:29:54;;;;;;;64.97;46.45;;;;;;;;;;5035900;28;20029;-76
2023/03/04 05:32:19;;;;;;;69.18;47.10;;;;;;;;;;5037750;28;20030;-76
2023/03/04 05:34:45;;;;;;;73.18;55.35;;;;;;;;;;5036268;28;20028;-74
2023/03/04 05:37:10;;;;;;;86.00;63.65;;;;;;;;;;5038289;28;20467;-75
2023/03/04 05:39:35;;;;;;;71.57;52.70;;;;;;;;;;5037484;28;20033;-74
2023/03/04 05:42:00;;;;;;;78.82;56.67;;;;;;;;;;5038353;28;20029;-73
2023/03/04 05:44:26;;;;;;;89.75;62.03;;;;;;;;;;5037284;28;20037;-74
2023/03/04 05:46:51;;;;;;;70.65;48.90;;;;;;;;;;5038967;28;20477;-72
2023/03/04 05:49:16;;;;;;;61.30;45.25;;;;;;;;;;5035260;28;20024;-75
2023/03/04 05:51:42;;;;;;;67.95;49.90;;;;;;;;;;5037459;28;20673;-75
2023/03/04 05:54:07;;;;;;;53.28;38.85;;;;;;;;;;5037353;28;20040;-73
2023/03/04 05:56:32;;;;;;;63.50;45.13;;;;;;;;;;5037150;28;20076;-78
2023/03/04 05:58:58;;;;;;;64.95;45.22;;;;;;;;;;5035442;28;20128;-76
2023/03/04 06:01:23;;;;;;;64.30;46.22;;;;;;;;;;5036246;28;20447;-73
2023/03/04 06:03:49;;;;;;;64.68;47.50;;;;;;;;;;5028116;28;20040;-73
2023/03/04 06:06:14;;;;;;;64.45;46.53;;;;;;;;;;5021517;28;20029;-73
2023/03/04 06:08:39;;;;;;;66.30;47.28;;;;;;;;;;5032344;28;20029;-73
2023/03/04 06:11:05;;;;;;;63.22;46.28;;;;;;;;;;5037026;28;20456;-74
2023/03/04 06:13:30;;;;;;;67.70;48.03;;;;;;;;;;5030794;28;20133;-74
2023/03/04 06:15:56;;;;;;;69.35;48.53;;;;;;;;;;5037076;28;20037;-76
2023/03/04 06:18:22;;;;;;;72.13;49.67;;;;;;;;;;5033385;28;20424;-74
2023/03/04 06:20:47;;;;;;;70.70;49.70;;;;;;;;;;5038300;28;20043;-76
2023/03/04 06:23:12;;;;;;;60.25;44.00;;;;;;;;;;5037554;28;20025;-74
2023/03/04 06:25:38;;;;;;;70.50;50.03;;;;;;;;;;5020154;28;20476;-76
2023/03/04 06:28:03;;;;;;;69.63;51.90;;;;;;;;;;5037298;28;20040;-76
2023/03/04 06:30:28;;;;;;;70.53;50.50;;;;;;;;;;5037707;28;20028;-74
2023/03/04 06:32:54;;;;;;;75.60;53.15;;;;;;;;;;5037814;28;20020;-74
2023/03/04 06:35:19;;;;;;;76.60;53.25;;;;;;;;;;5034358;28;20108;-74
2023/03/04 06:37:45;;;;;;;74.80;52.55;;;;;;;;;;5036776;28;20079;-75
2023/03/04 06:40:10;;;;;;;56.95;44.38;;;;;;;;;;5033005;28;20032;-77
2023/03/04 06:42:36;;;;;;;58.67;45.58;;;;;;;;;;5033285;28;20484;-73
2023/03/04 06:45:02;;;;;;;89.25;61.92;;;;;;;;;;5037558;28;20037;-74
2023/03/04 06:47:27;;;;;;;150.93;108.50;;;;;;;;;;5035261;28;20024;-78
2023/03/04 06:49:53;;;;;;;275.75;215.02;;;;;;;;;;5032657;28;20028;-77
2023/03/04 06:52:18;;;;;;;276.00;214.30;;;;;;;;;;5066354;28;20037;-72
2023/03/04 06:54:43;;;;;;;263.55;208.05;;;;;;;;;;5037003;28;20170;-73
2023/03/04 06:57:09;;;;;;;283.98;215.25;;;;;;;;;;5035322;28;20037;-75
2023/03/04 06:59:34;;;;;;;242.13;192.82;;;;;;;;;;5035157;28;20021;-72
2023/03/04 07:01:59;;;;;;;232.32;181.93;;;;;;;;;;5026380;28;20048;-78
2023/03/04 07:04:25;;;;;;;249.38;198.57;;;;;;;;;;5034754;28;20029;-75
2023/03/04 07:06:50;;;;;;;255.98;206.63;;;;;;;;;;5031087;28;20462;-77
2023/03/04 07:09:16;;;;;;;235.68;192.63;;;;;;;;;;5035245;28;20072;-76
2023/03/04 07:11:41;;;;;;;149.02;121.18;;;;;;;;;;5033229;28;20033;-75
2023/03/04 07:14:06;;;;;;;120.53;95.32;;;;;;;;;;5036836;28;20032;-75
2023/03/04 07:16:32;;;;;;;113.85;92.05;;;;;;;;;;5035520;28;20032;-77
2023/03/04 07:18:57;;;;;;;109.05;87.80;;;;;;;;;;5028115;28;20119;-78
2023/03/04 07:21:23;;;;;;;100.93;75.97;;;;;;;;;;5025280;28;20040;-75
2023/03/04 07:23:48;;;;;;;144.77;99.25;;;;;;;;;;5023808;28;20018;-75
2023/03/04 07:26:13;;;;;;;150.43;105.15;;;;;;;;;;5027918;28;20037;-76
2023/03/04 07:28:39;;;;;;;211.85;150.45;;;;;;;;;;5035784;28;20025;-75
2023/03/04 07:31:23;;;;;;;151.75;112.50;;;;;;;;;;5026518;28;20074;-77
2023/03/04 07:33:48;;;;;;;78.13;56.50;;;;;;;;;;5029892;28;20132;-76
2023/03/04 07:36:13;;;;;;;66.20;46.83;;;;;;;;;;5025268;28;20121;-75
2023/03/04 07:38:42;;;;;;;64.88;46.40;;;;;;;;;;5033158;28;20056;-76
2023/03/04 07:41:07;;;;;;;114.90;77.43;;;;;;;;;;5022344;28;20044;-76
2023/03/04 07:43:32;;;;;;;87.95;62.30;;;;;;;;;;5031788;28;20412;-76
2023/03/04 07:46:01;;;;;;;60.72;50.03;;;;;;;;;;5020191;28;20196;-76
2023/03/04 07:48:26;;;;;;;59.22;46.42;;;;;;;;;;5021592;28;20029;-77
2023/03/04 07:51:01;;;;;;;133.68;102.13;;;;;;;;;;5026990;28;20032;-78
2023/03/04 07:53:27;;;;;;;67.40;48.97;;;;;;;;;;5033265;28;20021;-78
2023/03/04 07:55:52;;;;;;;74.78;60.20;;;;;;;;;;5035721;28;20044;-77
2023/03/04 07:58:18;;;;;;;102.25;85.32;;;;;;;;;;5035983;28;20021;-77
2023/03/04 08:00:44;;;;;;;93.90;70.70;;;;;;;;;;5036335;28;20336;-77
2023/03/04 08:03:09;;;;;;;176.25;115.60;;;;;;;;;;5034219;28;20021;-79
2023/03/04 08:05:34;;;;;;;131.45;101.03;;;;;;;;;;5035656;28;20028;-79
2023/03/04 08:08:00;;;;;;;99.40;72.70;;;;;;;;;;5033722;28;20035;-79
2023/03/04 08:10:25;;;;;;;120.38;82.68;;;;;;;;;;5033074;28;20020;-74
2023/03/04 08:12:50;;;;;;;84.68;59.22;;;;;;;;;;5035665;28;20025;-74
2023/03/04 08:15:15;;;;;;;184.35;123.95;;;;;;;;;;5026535;28;20037;-74
2023/03/04 08:17:41;;;;;;;97.35;71.72;;;;;;;;;;5034826;28;20420;-74
2023/03/04 08:20:06;;;;;;;73.22;55.15;;;;;;;;;;5033139;28;20029;-74
2023/03/04 08:22:32;;;;;;;65.38;50.35;;;;;;;;;;5030757;28;20039;-75
2023/03/04 08:24:57;;;;;;;46.20;37.05;;;;;;;;;;5025425;28;20033;-77
2023/03/04 08:27:22;;;;;;;67.38;50.55;;;;;;;;;;5025730;28;20329;-77
2023/03/04 08:29:47;;;;;;;127.30;84.03;;;;;;;;;;5034397;28;20365;-74
2023/03/04 08:32:13;;;;;;;128.80;99.55;;;;;;;;;;5036321;28;20449;-75
2023/03/04 08:34:38;;;;;;;103.70;88.03;;;;;;;;;;5031442;28;20029;-76
2023/03/04 08:37:04;;;;;;;60.17;44.33;;;;;;;;;;5039630;28;20036;-74
2023/03/04 08:39:29;;;;;;;60.80;46.53;;;;;;;;;;5033850;28;20025;-72
2023/03/04 08:41:54;;;;;;;74.13;52.05;;;;;;;;;;5034418;28;20052;-74
2023/03/04 08:44:19;;;;;;;69.40;48.40;;;;;;;;;;5037039;28;20372;-73
2023/03/04 08:46:45;;;;;;;70.25;49.83;;;;;;;;;;5038860;28;20052;-74
2023/03/04 08:49:11;;;;;;;78.05;57.22;;;;;;;;;;5039060;28;20029;-76
2023/03/04 08:51:36;;;;;;;57.75;44.22;;;;;;;;;;5037011;28;20091;-74
2023/03/04 08:54:02;;;;;;;75.57;51.50;;;;;;;;;;5023763;28;20444;-72
2023/03/04 08:56:28;;;;;;;83.20;53.72;;;;;;;;;;5024890;28;20033;-72
2023/03/04 08:58:53;;;;;;;49.55;37.25;;;;;;;;;;5025559;28;20071;-73
2023/03/04 09:01:18;;;;;;;34.45;26.48;;;;;;;;;;5024792;28;20017;-73
2023/03/04 09:03:44;;;;;;;38.58;30.60;;;;;;;;;;5023666;28;20040;-73
2023/03/04 09:06:11;;;;;;;45.30;37.65;;;;;;;;;;5023687;28;20029;-73
2023/03/04 09:08:36;;;;;;;50.85;40.72;;;;;;;;;;5025717;28;20057;-77
2023/03/04 09:11:02;;;;;;;63.75;49.25;;;;;;;;;;5033359;28;20061;-73
2023/03/04 09:13:28;;;;;;;49.85;40.47;;;;;;;;;;5037636;28;20673;-74
2023/03/04 09:15:54;;;;;;;49.40;38.38;;;;;;;;;;5038887;28;20033;-74
2023/03/04 09:18:20;;;;;;;62.38;47.15;;;;;;;;;;5039870;28;20091;-74
2023/03/04 09:20:46;;;;;;;66.60;48.42;;;;;;;;;;5038273;28;20341;-74
2023/03/04 09:23:11;;;;;;;42.58;29.02;;;;;;;;;;5029576;28;20091;-76
2023/03/04 09:25:37;;;;;;;42.88;35.28;;;;;;;;;;5033583;28;20124;-76
2023/03/04 09:28:02;;;;;;;52.97;42.58;;;;;;;;;;5037327;28;20017;-74
2023/03/04 09:30:28;;;;;;;39.97;33.10;;;;;;;;;;5026978;28;20464;-74
2023/03/04 09:32:53;;;;;;;41.00;33.38;;;;;;;;;;5026576;28;20451;-74
2023/03/04 09:35:18;;;;;;;40.30;32.28;;;;;;;;;;5035432;28;20495;-75
2023/03/04 09:37:45;;;;;;;46.22;33.65;;;;;;;;;;5036869;28;20114;-74
2023/03/04 09:40:16;;;;;;;47.50;35.97;;;;;;;;;;5038916;28;20052;-75
2023/03/04 09:42:45;;;;;;;45.88;35.83;;;;;;;;;;5035812;28;20060;-75
2023/03/04 09:45:13;;;;;;;35.58;28.13;;;;;;;;;;5036035;28;20053;-74
2023/03/04 09:47:39;;;;;;;40.15;30.02;;;;;;;;;;5037770;28;20412;-77
2023/03/04 09:50:08;;;;;;;44.08;32.33;;;;;;;;;;5034907;28;20025;-74
2023/03/04 09:52:52;;;;;;;40.33;30.08;;;;;;;;;;5037435;28;20100;-74
2023/03/04 09:55:40;;;;;;;42.65;33.55;;;;;;;;;;5033152;28;20112;-75
2023/03/04 09:58:14;;;;;;;56.05;40.10;;;;;;;;;;5030893;28;21179;-75
2023/03/04 10:00:50;;;;;;;41.40;32.22;;;;;;;;;;5036928;28;20025;-77
2023/03/04 10:03:22;;;;;;;47.15;39.15;;;;;;;;;;5035722;28;20032;-74
2023/03/04 10:05:47;;;;;;;42.03;34.03;;;;;;;;;;5033995;28;20029;-75
2023/03/04 10:08:42;;;;;;;38.80;32.72;;;;;;;;;;5036354;28;20532;-75
2023/03/04 10:11:16;;;;;;;36.47;31.70;;;;;;;;;;5034966;28;20037;-75
2023/03/04 10:13:52;;;;;;;31.25;24.13;;;;;;;;;;5035334;28;20723;-75
2023/03/04 10:16:20;;;;;;;29.85;21.92;;;;;;;;;;5038044;28;20453;-75
2023/03/04 10:18:51;;;;;;;152.82;116.35;;;;;;;;;;5035454;28;20043;-75
2023/03/04 10:21:43;;;;;;;76.25;52.55;;;;;;;;;;5032484;28;20464;-75
2023/03/04 10:24:13;;;;;;;40.95;26.33;;;;;;;;;;5036527;28;20044;-75
2023/03/04 10:26:41;;;;;;;26.33;22.15;;;;;;;;;;5036796;28;20372;-74
2023/03/04 10:29:08;;;;;;;25.67;20.42;;;;;;;;;;5033882;28;20108;-75
2023/03/04 10:31:35;;;;;;;27.77;21.65;;;;;;;;;;5035880;28;20326;-74
2023/03/04 10:34:03;;;;;;;26.02;20.85;;;;;;;;;;5034290;28;20028;-74
2023/03/04 10:36:28;;;;;;;26.13;21.33;;;;;;;;;;5033453;28;20025;-76
2023/03/04 10:38:56;;;;;;;26.30;21.60;;;;;;;;;;5035022;28;20086;-77
2023/03/04 10:41:23;;;;;;;32.63;26.45;;;;;;;;;;5037661;28;20022;-74
2023/03/04 10:44:09;;;;;;;34.35;26.50;;;;;;;;;;5036905;28;20036;-74
2023/03/04 10:46:41;;;;;;;29.70;22.53;;;;;;;;;;4990238;28;1207792;-74
2023/03/04 10:49:09;;;;;;;27.30;21.15;;;;;;;;;;5037178;28;20270;-74
2023/03/04 10:51:41;;;;;;;30.25;23.67;;;;;;;;;;5034452;28;20029;-76
2023/03/04 10:54:09;;;;;;;53.75;44.92;;;;;;;;;;5037281;28;20067;-76
2023/03/04 10:56:39;;;;;;;39.60;32.85;;;;;;;;;;5039254;28;20017;-75
2023/03/04 10:59:24;;;;;;;32.42;22.60;;;;;;;;;;5032608;28;20026;-74
2023/03/04 11:01:50;;;;;;;31.00;24.02;;;;;;;;;;5037279;28;20040;-77
2023/03/04 11:04:18;;;;;;;37.78;27.75;;;;;;;;;;5034956;28;20037;-76
2023/03/04 11:06:44;;;;;;;37.00;27.20;;;;;;;;;;5035436;28;20044;-75
2023/03/04 11:09:23;;;;;;;53.42;39.30;;;;;;;;;;5036337;28;20041;-75
2023/03/04 11:11:49;;;;;;;44.35;31.10;;;;;;;;;;5034525;28;20500;-75
2023/03/04 11:14:14;;;;;;;79.65;59.22;;;;;;;;;;5033850;28;20345;-74
2023/03/04 11:16:39;;;;;;;73.30;49.80;;;;;;;;;;5035194;28;20025;-74
2023/03/04 11:19:13;;;;;;;72.20;56.58;;;;;;;;;;5035772;28;20025;-74
2023/03/04 11:21:39;;;;;;;82.75;55.90;;;;;;;;;;5037964;28;20478;-76
2023/03/04 11:24:13;;;;;;;56.85;37.88;;;;;;;;;;5034725;28;20433;-76
2023/03/04 11:26:44;;;;;;;43.70;31.00;;;;;;;;;;5034772;28;20017;-75
2023/03/04 11:29:14;;;;;;;55.50;37.33;;;;;;;;;;5035190;28;20033;-75
2023/03/04 11:31:58;;;;;;;60.53;40.08;;;;;;;;;;5031895;28;20036;-74
2023/03/04 11:34:32;;;;;;;37.10;26.38;;;;;;;;;;5033341;28;20452;-75
2023/03/04 11:37:02;;;;;;;57.75;38.85;;;;;;;;;;5036183;28;20033;-74
2023/03/04 11:39:38;;;;;;;53.42;36.10;;;;;;;;;;5035484;28;20078;-74
2023/03/04 11:42:15;;;;;;;46.97;38.78;;;;;;;;;;5033040;28;20445;-76
2023/03/04 11:44:41;;;;;;;29.55;22.02;;;;;;;;;;5037665;28;20029;-77
2023/03/04 11:47:44;;;;;;;36.85;22.20;;;;;;;;;;5035677;28;20133;-74
2023/03/04 11:50:13;;;;;;;36.80;24.00;;;;;;;;;;5033998;28;20029;-75
2023/03/04 11:52:50;;;;;;;59.40;39.85;;;;;;;;;;5033997;28;20029;-75
2023/03/04 11:55:31;;;;;;;46.05;33.45;;;;;;;;;;5034691;28;20195;-74
2023/03/04 11:58:05;;;;;;;35.05;25.52;;;;;;;;;;5035263;28;20028;-76
2023/03/04 12:00:30;;;;;;;39.65;28.10;;;;;;;;;;5037831;28;20175;-75
2023/03/04 12:03:07;;;;;;;32.28;23.58;;;;;;;;;;5035788;28;20468;-74
2023/03/04 12:05:44;;;;;;;40.15;29.77;;;;;;;;;;5037310;28;20037;-75
2023/03/04 12:08:09;;;;;;;47.47;31.88;;;;;;;;;;5037713;28;20133;-78
2023/03/04 12:10:46;;;;;;;38.10;28.08;;;;;;;;;;5033681;28;20397;-73
2023/03/04 12:13:38;;;;;;;56.28;38.90;;;;;;;;;;5025811;28;20064;-75
2023/03/04 12:16:15;;;;;;;51.80;39.53;;;;;;;;;;5004659;28;20044;-75
2023/03/04 12:18:59;;;;;;;55.25;40.53;;;;;;;;;;5005657;28;20191;-73
2023/03/04 12:21:33;;;;;;;72.95;59.28;;;;;;;;;;5024721;28;20043;-73
2023/03/04 12:24:07;;;;;;;61.13;44.72;;;;;;;;;;5023338;28;20021;-73
2023/03/04 12:26:39;;;;;;;60.90;46.50;;;;;;;;;;5027253;28;20033;-73
2023/03/04 12:29:23;;;;;;;64.28;40.95;;;;;;;;;;5026721;28;20040;-73
2023/03/04 12:31:53;;;;;;;51.95;37.10;;;;;;;;;;5025960;28;20028;-74
2023/03/04 12:34:36;;;;;;;50.92;38.38;;;;;;;;;;5023398;28;20042;-72
2023/03/04 12:37:01;;;;;;;88.85;62.22;;;;;;;;;;5025416;28;20045;-73
2023/03/04 12:39:39;;;;;;;53.33;37.13;;;;;;;;;;5026651;28;20352;-75
2023/03/04 12:42:08;;;;;;;41.88;31.60;;;;;;;;;;5026124;28;20032;-74
2023/03/04 12:44:59;;;;;;;60.85;40.97;;;;;;;;;;5025278;28;20048;-73
2023/03/04 12:47:43;;;;;;;60.40;44.72;;;;;;;;;;5024619;28;20183;-75
2023/03/04 12:50:24;;;;;;;50.58;38.08;;;;;;;;;;5038884;28;20040;-77
2023/03/04 12:53:08;;;;;;;45.35;32.55;;;;;;;;;;5028021;28;20115;-74
2023/03/04 12:55:36;;;;;;;50.15;31.50;;;;;;;;;;5025620;28;20052;-73
2023/03/04 12:58:01;;;;;;;112.22;69.43;;;;;;;;;;5025715;28;20044;-74
2023/03/04 13:00:47;;;;;;;92.80;61.90;;;;;;;;;;5027073;28;20053;-73
2023/03/04 13:03:32;;;;;;;83.28;56.20;;;;;;;;;;5026301;28;20041;-75
2023/03/04 13:06:27;;;;;;;73.60;55.60;;;;;;;;;;5023297;28;20045;-73
2023/03/04 13:09:25;;;;;;;95.63;60.75;;;;;;;;;;5024444;28;20040;-73
2023/03/04 13:11:50;;;;;;;179.57;108.40;;;;;;;;;;5024127;28;20028;-75
2023/03/04 13:14:17;;;;;;;88.00;54.97;;;;;;;;;;5021120;28;20035;-75
2023/03/04 13:16:44;;;;;;;85.03;55.60;;;;;;;;;;5023118;28;20032;-74
2023/03/04 13:19:28;;;;;;;69.65;48.30;;;;;;;;;;5023357;28;20094;-74
2023/03/04 13:21:54;;;;;;;107.03;70.15;;;;;;;;;;5024540;28;20137;-79
2023/03/04 13:24:43;;;;;;;76.63;54.50;;;;;;;;;;5021321;28;20678;-75
2023/03/04 13:27:26;;;;;;;69.68;50.80;;;;;;;;;;5022126;28;20102;-76
2023/03/04 13:29:52;;;;;;;92.80;66.25;;;;;;;;;;5022639;28;20047;-75
2023/03/04 13:32:37;;;;;;;81.57;57.03;;;;;;;;;;5024099;28;20029;-75
2023/03/04 13:35:22;;;;;;;87.05;55.00;;;;;;;;;;5021649;28;20126;-77
2023/03/04 13:37:58;;;;;;;63.22;43.28;;;;;;;;;;5020381;28;20047;-74
2023/03/04 13:40:31;;;;;;;75.68;47.70;;;;;;;;;;5015972;28;20041;-76
2023/03/04 13:43:16;;;;;;;71.13;47.30;;;;;;;;;;5019520;28;20064;-75
2023/03/04 13:45:42;;;;;;;83.25;52.00;;;;;;;;;;5028736;28;20072;-74
2023/03/04 13:48:20;;;;;;;79.90;57.67;;;;;;;;;;5019633;28;20469;-77
2023/03/04 13:50:47;;;;;;;71.85;48.30;;;;;;;;;;5038171;28;20101;-76
2023/03/04 13:53:22;;;;;;;50.17;36.67;;;;;;;;;;5026518;28;20040;-74
2023/03/04 13:56:04;;;;;;;53.70;40.10;;;;;;;;;;5027325;28;20020;-74
2023/03/04 13:58:30;;;;;;;52.80;40.25;;;;;;;;;;5032752;28;20033;-76
2023/03/04 14:00:55;;;;;;;59.42;43.92;;;;;;;;;;5028437;28;20025;-77
2023/03/04 14:03:28;;;;;;;67.93;48.47;;;;;;;;;;5036927;28;20098;-74
2023/03/04 14:06:12;;;;;;;54.38;42.40;;;;;;;;;;5030550;28;20160;-74
2023/03/04 14:08:37;;;;;;;52.65;40.70;;;;;;;;;;5033083;28;20051;-73
2023/03/04 14:11:02;;;;;;;48.13;35.22;;;;;;;;;;5026868;28;20051;-73
2023/03/04 14:13:27;;;;;;;35.13;26.70;;;;;;;;;;5027124;28;20032;-74
2023/03/04 14:15:57;;;;;;;51.17;36.45;;;;;;;;;;5028902;28;20033;-77
2023/03/04 14:18:26;;;;;;;58.17;43.58;;;;;;;;;;5019408;28;20444;-75
2023/03/04 14:20:57;;;;;;;50.92;38.15;;;;;;;;;;5023718;28;20040;-75